sensor_id;sensor_type;location;lat;lon;timestamp;P1;durP1;ratioP1;P2;durP2;ratioP2
45944;SDS011;31655;48.972;10.686;2023-01-24T00:01:43;37.38;;;18.63;;
45944;SDS011;31655;48.972;10.686;2023-01-24T00:04:09;35.92;;;17.42;;
45944;SDS011;31655;48.972;10.686;2023-01-24T00:06:35;35.05;;;16.88;;
45944;SDS011;31655;48.972;10.686;2023-01-24T00:09:01;37.55;;;17.90;;
45944;SDS011;31655;48.972;10.686;2023-01-24T00:11:27;33.83;;;16.80;;
45944;SDS011;31655;48.972;10.686;2023-01-24T00:13:53;38.08;;;18.38;;
45944;SDS011;31655;48.972;10.686;2023-01-24T00:16:19;36.05;;;18.20;;
45944;SDS011;31655;48.972;10.686;2023-01-24T00:18:46;35.97;;;15.95;;
45944;SDS011;31655;48.972;10.686;2023-01-24T00:21:13;37.78;;;16.40;;
45944;SDS011;31655;48.972;10.686;2023-01-24T00:23:44;32.78;;;16.38;;
45944;SDS011;31655;48.972;10.686;2023-01-24T00:26:10;34.83;;;16.77;;
45944;SDS011;31655;48.972;10.686;2023-01-24T00:28:36;38.97;;;18.27;;
45944;SDS011;31655;48.972;10.686;2023-01-24T00:31:03;41.17;;;21.65;;
45944;SDS011;31655;48.972;10.686;2023-01-24T00:33:29;37.58;;;17.25;;
45944;SDS011;31655;48.972;10.686;2023-01-24T00:35:55;35.70;;;16.15;;
45944;SDS011;31655;48.972;10.686;2023-01-24T00:38:21;33.88;;;15.70;;
45944;SDS011;31655;48.972;10.686;2023-01-24T00:40:48;33.78;;;15.63;;
45944;SDS011;31655;48.972;10.686;2023-01-24T00:43:14;42.30;;;19.42;;
45944;SDS011;31655;48.972;10.686;2023-01-24T00:45:40;34.90;;;16.75;;
45944;SDS011;31655;48.972;10.686;2023-01-24T00:48:09;34.92;;;16.58;;
45944;SDS011;31655;48.972;10.686;2023-01-24T00:50:35;33.75;;;16.58;;
45944;SDS011;31655;48.972;10.686;2023-01-24T00:53:02;29.80;;;15.00;;
45944;SDS011;31655;48.972;10.686;2023-01-24T00:55:29;35.50;;;16.85;;
45944;SDS011;31655;48.972;10.686;2023-01-24T00:57:55;33.58;;;15.82;;
45944;SDS011;31655;48.972;10.686;2023-01-24T01:00:21;37.05;;;15.20;;
45944;SDS011;31655;48.972;10.686;2023-01-24T01:02:48;31.77;;;15.63;;
45944;SDS011;31655;48.972;10.686;2023-01-24T01:05:14;32.33;;;16.30;;
45944;SDS011;31655;48.972;10.686;2023-01-24T01:07:40;32.72;;;17.38;;
45944;SDS011;31655;48.972;10.686;2023-01-24T01:10:06;29.65;;;15.98;;
45944;SDS011;31655;48.972;10.686;2023-01-24T01:12:32;33.75;;;15.80;;
45944;SDS011;31655;48.972;10.686;2023-01-24T01:14:58;30.42;;;16.30;;
45944;SDS011;31655;48.972;10.686;2023-01-24T01:17:24;33.13;;;13.73;;
45944;SDS011;31655;48.972;10.686;2023-01-24T01:19:51;32.60;;;15.10;;
45944;SDS011;31655;48.972;10.686;2023-01-24T01:22:17;32.53;;;16.27;;
45944;SDS011;31655;48.972;10.686;2023-01-24T01:24:43;36.35;;;16.25;;
45944;SDS011;31655;48.972;10.686;2023-01-24T01:27:09;34.25;;;16.38;;
45944;SDS011;31655;48.972;10.686;2023-01-24T01:29:35;32.42;;;15.93;;
45944;SDS011;31655;48.972;10.686;2023-01-24T01:32:01;35.20;;;15.35;;
45944;SDS011;31655;48.972;10.686;2023-01-24T01:34:28;33.88;;;16.23;;
45944;SDS011;31655;48.972;10.686;2023-01-24T01:36:54;39.47;;;16.42;;
45944;SDS011;31655;48.972;10.686;2023-01-24T01:39:20;34.83;;;16.90;;
45944;SDS011;31655;48.972;10.686;2023-01-24T01:41:46;33.80;;;15.23;;
45944;SDS011;31655;48.972;10.686;2023-01-24T01:44:19;33.38;;;16.40;;
45944;SDS011;31655;48.972;10.686;2023-01-24T01:49:33;39.10;;;18.27;;
45944;SDS011;31655;48.972;10.686;2023-01-24T01:52:00;33.20;;;15.80;;
45944;SDS011;31655;48.972;10.686;2023-01-24T01:54:29;36.42;;;16.85;;
45944;SDS011;31655;48.972;10.686;2023-01-24T01:56:57;32.38;;;16.60;;
45944;SDS011;31655;48.972;10.686;2023-01-24T01:59:26;37.75;;;17.77;;
45944;SDS011;31655;48.972;10.686;2023-01-24T02:01:53;29.55;;;15.75;;
45944;SDS011;31655;48.972;10.686;2023-01-24T02:04:22;34.15;;;16.05;;
45944;SDS011;31655;48.972;10.686;2023-01-24T02:09:40;41.42;;;16.60;;
45944;SDS011;31655;48.972;10.686;2023-01-24T02:12:07;35.78;;;18.52;;
45944;SDS011;31655;48.972;10.686;2023-01-24T02:14:36;35.78;;;17.88;;
45944;SDS011;31655;48.972;10.686;2023-01-24T02:17:21;42.20;;;18.88;;
45944;SDS011;31655;48.972;10.686;2023-01-24T02:19:54;31.55;;;16.13;;
45944;SDS011;31655;48.972;10.686;2023-01-24T02:25:32;39.72;;;17.80;;
45944;SDS011;31655;48.972;10.686;2023-01-24T02:27:59;38.55;;;19.15;;
45944;SDS011;31655;48.972;10.686;2023-01-24T02:30:27;37.97;;;17.98;;
45944;SDS011;31655;48.972;10.686;2023-01-24T02:32:54;33.00;;;15.73;;
45944;SDS011;31655;48.972;10.686;2023-01-24T02:37:49;36.17;;;17.65;;
45944;SDS011;31655;48.972;10.686;2023-01-24T02:40:16;37.13;;;17.63;;
45944;SDS011;31655;48.972;10.686;2023-01-24T02:42:42;37.85;;;16.90;;
45944;SDS011;31655;48.972;10.686;2023-01-24T02:45:10;37.60;;;16.73;;
45944;SDS011;31655;48.972;10.686;2023-01-24T02:47:37;37.72;;;17.10;;
45944;SDS011;31655;48.972;10.686;2023-01-24T02:50:09;32.80;;;16.88;;
45944;SDS011;31655;48.972;10.686;2023-01-24T02:52:36;28.98;;;15.18;;
45944;SDS011;31655;48.972;10.686;2023-01-24T02:55:20;32.60;;;14.95;;
45944;SDS011;31655;48.972;10.686;2023-01-24T02:57:46;32.00;;;14.15;;
45944;SDS011;31655;48.972;10.686;2023-01-24T03:00:31;31.30;;;15.80;;
45944;SDS011;31655;48.972;10.686;2023-01-24T03:03:05;27.63;;;13.88;;
45944;SDS011;31655;48.972;10.686;2023-01-24T03:05:31;27.75;;;13.18;;
45944;SDS011;31655;48.972;10.686;2023-01-24T03:08:16;28.50;;;14.40;;
45944;SDS011;31655;48.972;10.686;2023-01-24T03:10:42;28.90;;;14.07;;
45944;SDS011;31655;48.972;10.686;2023-01-24T03:13:11;37.58;;;16.15;;
45944;SDS011;31655;48.972;10.686;2023-01-24T03:15:58;30.23;;;14.90;;
45944;SDS011;31655;48.972;10.686;2023-01-24T03:18:43;28.00;;;13.95;;
45944;SDS011;31655;48.972;10.686;2023-01-24T03:21:28;28.40;;;15.32;;
45944;SDS011;31655;48.972;10.686;2023-01-24T03:24:12;28.83;;;14.07;;
45944;SDS011;31655;48.972;10.686;2023-01-24T03:26:56;30.40;;;15.90;;
45944;SDS011;31655;48.972;10.686;2023-01-24T03:29:41;24.45;;;14.00;;
45944;SDS011;31655;48.972;10.686;2023-01-24T03:32:25;29.58;;;13.52;;
45944;SDS011;31655;48.972;10.686;2023-01-24T03:35:11;25.67;;;13.35;;
45944;SDS011;31655;48.972;10.686;2023-01-24T03:37:37;30.15;;;13.95;;
45944;SDS011;31655;48.972;10.686;2023-01-24T03:40:21;30.33;;;14.25;;
45944;SDS011;31655;48.972;10.686;2023-01-24T03:42:47;31.30;;;14.43;;
45944;SDS011;31655;48.972;10.686;2023-01-24T03:45:14;25.25;;;14.00;;
45944;SDS011;31655;48.972;10.686;2023-01-24T03:47:45;26.42;;;12.95;;
45944;SDS011;31655;48.972;10.686;2023-01-24T03:50:19;25.95;;;13.13;;
45944;SDS011;31655;48.972;10.686;2023-01-24T03:53:05;30.73;;;13.88;;
45944;SDS011;31655;48.972;10.686;2023-01-24T03:55:31;28.38;;;13.48;;
45944;SDS011;31655;48.972;10.686;2023-01-24T03:57:57;27.50;;;13.68;;
45944;SDS011;31655;48.972;10.686;2023-01-24T04:00:23;26.65;;;14.00;;
45944;SDS011;31655;48.972;10.686;2023-01-24T04:02:49;27.02;;;14.13;;
45944;SDS011;31655;48.972;10.686;2023-01-24T04:05:15;30.25;;;13.43;;
45944;SDS011;31655;48.972;10.686;2023-01-24T04:07:42;24.75;;;11.60;;
45944;SDS011;31655;48.972;10.686;2023-01-24T04:10:08;28.10;;;12.90;;
45944;SDS011;31655;48.972;10.686;2023-01-24T04:12:35;26.75;;;13.20;;
45944;SDS011;31655;48.972;10.686;2023-01-24T04:25:23;26.17;;;11.68;;
45944;SDS011;31655;48.972;10.686;2023-01-24T04:27:48;26.85;;;12.57;;
45944;SDS011;31655;48.972;10.686;2023-01-24T04:30:15;23.35;;;11.48;;
45944;SDS011;31655;48.972;10.686;2023-01-24T04:32:42;25.00;;;11.95;;
45944;SDS011;31655;48.972;10.686;2023-01-24T04:35:09;24.92;;;12.23;;
45944;SDS011;31655;48.972;10.686;2023-01-24T04:37:43;23.08;;;12.10;;
45944;SDS011;31655;48.972;10.686;2023-01-24T04:40:09;26.25;;;12.15;;
45944;SDS011;31655;48.972;10.686;2023-01-24T04:42:37;18.13;;;10.60;;
45944;SDS011;31655;48.972;10.686;2023-01-24T04:45:03;21.13;;;11.35;;
45944;SDS011;31655;48.972;10.686;2023-01-24T04:47:29;26.45;;;14.20;;
45944;SDS011;31655;48.972;10.686;2023-01-24T04:49:55;24.70;;;11.80;;
45944;SDS011;31655;48.972;10.686;2023-01-24T04:52:21;26.38;;;12.65;;
45944;SDS011;31655;48.972;10.686;2023-01-24T04:54:47;23.40;;;13.05;;
45944;SDS011;31655;48.972;10.686;2023-01-24T04:57:13;29.92;;;13.88;;
45944;SDS011;31655;48.972;10.686;2023-01-24T04:59:39;25.45;;;13.00;;
45944;SDS011;31655;48.972;10.686;2023-01-24T05:02:05;23.15;;;12.75;;
45944;SDS011;31655;48.972;10.686;2023-01-24T05:04:31;24.73;;;11.93;;
45944;SDS011;31655;48.972;10.686;2023-01-24T05:06:57;26.42;;;13.48;;
45944;SDS011;31655;48.972;10.686;2023-01-24T05:09:23;26.45;;;12.75;;
45944;SDS011;31655;48.972;10.686;2023-01-24T05:11:49;26.10;;;11.77;;
45944;SDS011;31655;48.972;10.686;2023-01-24T05:14:15;29.88;;;13.07;;
45944;SDS011;31655;48.972;10.686;2023-01-24T05:16:41;26.80;;;12.98;;
45944;SDS011;31655;48.972;10.686;2023-01-24T05:19:07;25.45;;;12.65;;
45944;SDS011;31655;48.972;10.686;2023-01-24T05:21:33;19.95;;;10.63;;
45944;SDS011;31655;48.972;10.686;2023-01-24T05:23:59;27.05;;;13.23;;
45944;SDS011;31655;48.972;10.686;2023-01-24T05:26:26;24.83;;;12.00;;
45944;SDS011;31655;48.972;10.686;2023-01-24T05:28:53;26.35;;;12.40;;
45944;SDS011;31655;48.972;10.686;2023-01-24T05:31:20;25.15;;;11.63;;
45944;SDS011;31655;48.972;10.686;2023-01-24T05:33:47;24.05;;;11.80;;
45944;SDS011;31655;48.972;10.686;2023-01-24T05:36:17;25.45;;;12.73;;
45944;SDS011;31655;48.972;10.686;2023-01-24T05:38:45;27.15;;;13.32;;
45944;SDS011;31655;48.972;10.686;2023-01-24T05:41:12;22.40;;;11.90;;
45944;SDS011;31655;48.972;10.686;2023-01-24T05:43:41;27.92;;;11.77;;
45944;SDS011;31655;48.972;10.686;2023-01-24T05:46:08;24.35;;;12.48;;
45944;SDS011;31655;48.972;10.686;2023-01-24T05:48:36;23.65;;;12.07;;
45944;SDS011;31655;48.972;10.686;2023-01-24T05:51:05;22.00;;;11.75;;
45944;SDS011;31655;48.972;10.686;2023-01-24T05:53:33;25.45;;;12.50;;
45944;SDS011;31655;48.972;10.686;2023-01-24T05:56:00;27.05;;;13.23;;
45944;SDS011;31655;48.972;10.686;2023-01-24T05:58:27;23.20;;;12.15;;
45944;SDS011;31655;48.972;10.686;2023-01-24T06:00:54;23.80;;;12.55;;
45944;SDS011;31655;48.972;10.686;2023-01-24T06:03:20;26.30;;;12.55;;
45944;SDS011;31655;48.972;10.686;2023-01-24T06:05:53;23.73;;;12.63;;
45944;SDS011;31655;48.972;10.686;2023-01-24T06:08:20;26.63;;;11.63;;
45944;SDS011;31655;48.972;10.686;2023-01-24T06:10:46;24.83;;;11.73;;
45944;SDS011;31655;48.972;10.686;2023-01-24T06:13:12;25.40;;;12.60;;
45944;SDS011;31655;48.972;10.686;2023-01-24T06:15:39;22.02;;;11.27;;
45944;SDS011;31655;48.972;10.686;2023-01-24T06:18:06;23.00;;;11.77;;
45944;SDS011;31655;48.972;10.686;2023-01-24T06:20:32;22.92;;;12.25;;
45944;SDS011;31655;48.972;10.686;2023-01-24T06:23:02;20.00;;;11.52;;
45944;SDS011;31655;48.972;10.686;2023-01-24T06:25:29;25.05;;;12.38;;
45944;SDS011;31655;48.972;10.686;2023-01-24T06:27:55;28.20;;;12.32;;
45944;SDS011;31655;48.972;10.686;2023-01-24T06:30:22;24.02;;;12.13;;
45944;SDS011;31655;48.972;10.686;2023-01-24T06:38:19;24.80;;;13.18;;
45944;SDS011;31655;48.972;10.686;2023-01-24T06:40:46;23.63;;;11.40;;
45944;SDS011;31655;48.972;10.686;2023-01-24T06:43:12;20.88;;;11.13;;
45944;SDS011;31655;48.972;10.686;2023-01-24T06:45:38;27.20;;;12.93;;
45944;SDS011;31655;48.972;10.686;2023-01-24T06:48:04;21.35;;;11.82;;
45944;SDS011;31655;48.972;10.686;2023-01-24T06:50:30;22.00;;;10.25;;
45944;SDS011;31655;48.972;10.686;2023-01-24T06:52:57;22.98;;;11.75;;
45944;SDS011;31655;48.972;10.686;2023-01-24T06:55:23;23.55;;;11.52;;
45944;SDS011;31655;48.972;10.686;2023-01-24T06:57:56;20.15;;;11.77;;
45944;SDS011;31655;48.972;10.686;2023-01-24T07:00:22;18.10;;;10.38;;
45944;SDS011;31655;48.972;10.686;2023-01-24T07:02:56;18.50;;;9.57;;
45944;SDS011;31655;48.972;10.686;2023-01-24T07:05:22;23.52;;;12.38;;
45944;SDS011;31655;48.972;10.686;2023-01-24T07:07:48;20.35;;;11.13;;
45944;SDS011;31655;48.972;10.686;2023-01-24T07:10:14;19.45;;;10.45;;
45944;SDS011;31655;48.972;10.686;2023-01-24T07:12:41;17.75;;;9.50;;
45944;SDS011;31655;48.972;10.686;2023-01-24T07:15:08;20.88;;;9.70;;
45944;SDS011;31655;48.972;10.686;2023-01-24T07:17:34;22.67;;;10.25;;
45944;SDS011;31655;48.972;10.686;2023-01-24T07:20:00;21.85;;;10.80;;
45944;SDS011;31655;48.972;10.686;2023-01-24T07:22:26;19.83;;;10.75;;
45944;SDS011;31655;48.972;10.686;2023-01-24T07:24:52;17.98;;;9.70;;
45944;SDS011;31655;48.972;10.686;2023-01-24T07:27:19;19.50;;;10.32;;
45944;SDS011;31655;48.972;10.686;2023-01-24T07:50:30;17.08;;;9.75;;
45944;SDS011;31655;48.972;10.686;2023-01-24T07:52:56;17.88;;;10.13;;
45944;SDS011;31655;48.972;10.686;2023-01-24T07:55:23;18.10;;;8.52;;
45944;SDS011;31655;48.972;10.686;2023-01-24T07:57:49;16.23;;;8.23;;
45944;SDS011;31655;48.972;10.686;2023-01-24T08:00:15;15.18;;;8.65;;
45944;SDS011;31655;48.972;10.686;2023-01-24T08:02:42;13.65;;;9.10;;
45944;SDS011;31655;48.972;10.686;2023-01-24T08:05:08;14.73;;;8.20;;
45944;SDS011;31655;48.972;10.686;2023-01-24T08:07:34;16.52;;;9.75;;
45944;SDS011;31655;48.972;10.686;2023-01-24T08:10:04;17.92;;;10.40;;
45944;SDS011;31655;48.972;10.686;2023-01-24T08:12:30;13.65;;;8.60;;
45944;SDS011;31655;48.972;10.686;2023-01-24T08:14:56;13.55;;;8.90;;
45944;SDS011;31655;48.972;10.686;2023-01-24T08:17:22;15.50;;;8.52;;
45944;SDS011;31655;48.972;10.686;2023-01-24T08:19:48;15.70;;;7.88;;
45944;SDS011;31655;48.972;10.686;2023-01-24T08:22:14;13.85;;;8.13;;
45944;SDS011;31655;48.972;10.686;2023-01-24T08:24:40;16.00;;;8.25;;
45944;SDS011;31655;48.972;10.686;2023-01-24T08:27:06;16.08;;;8.52;;
45944;SDS011;31655;48.972;10.686;2023-01-24T08:29:32;19.85;;;9.05;;
45944;SDS011;31655;48.972;10.686;2023-01-24T08:31:59;14.90;;;7.65;;
45944;SDS011;31655;48.972;10.686;2023-01-24T08:34:25;15.30;;;8.50;;
45944;SDS011;31655;48.972;10.686;2023-01-24T08:36:51;17.30;;;8.73;;
45944;SDS011;31655;48.972;10.686;2023-01-24T08:39:18;15.40;;;8.63;;
45944;SDS011;31655;48.972;10.686;2023-01-24T08:41:44;17.90;;;9.70;;
45944;SDS011;31655;48.972;10.686;2023-01-24T08:44:11;15.30;;;8.45;;
45944;SDS011;31655;48.972;10.686;2023-01-24T08:46:38;16.45;;;8.82;;
45944;SDS011;31655;48.972;10.686;2023-01-24T08:49:04;11.82;;;7.47;;
45944;SDS011;31655;48.972;10.686;2023-01-24T08:51:30;15.30;;;8.60;;
45944;SDS011;31655;48.972;10.686;2023-01-24T08:53:56;13.77;;;8.00;;
45944;SDS011;31655;48.972;10.686;2023-01-24T08:56:22;12.27;;;8.23;;
45944;SDS011;31655;48.972;10.686;2023-01-24T08:58:48;15.25;;;8.20;;
45944;SDS011;31655;48.972;10.686;2023-01-24T09:01:15;16.60;;;8.73;;
45944;SDS011;31655;48.972;10.686;2023-01-24T09:03:41;15.73;;;8.68;;
45944;SDS011;31655;48.972;10.686;2023-01-24T09:06:07;15.32;;;7.85;;
45944;SDS011;31655;48.972;10.686;2023-01-24T09:08:33;13.68;;;8.25;;
45944;SDS011;31655;48.972;10.686;2023-01-24T09:10:59;16.27;;;9.75;;
45944;SDS011;31655;48.972;10.686;2023-01-24T09:13:26;16.30;;;9.98;;
45944;SDS011;31655;48.972;10.686;2023-01-24T09:18:28;13.40;;;7.63;;
45944;SDS011;31655;48.972;10.686;2023-01-24T09:20:54;14.73;;;7.97;;
45944;SDS011;31655;48.972;10.686;2023-01-24T10:02:19;30.60;;;11.52;;
45944;SDS011;31655;48.972;10.686;2023-01-24T10:04:47;15.23;;;9.45;;
45944;SDS011;31655;48.972;10.686;2023-01-24T10:09:47;17.60;;;9.98;;
45944;SDS011;31655;48.972;10.686;2023-01-24T10:12:29;17.73;;;9.18;;
45944;SDS011;31655;48.972;10.686;2023-01-24T10:15:09;18.17;;;9.13;;
45944;SDS011;31655;48.972;10.686;2023-01-24T10:25:55;18.00;;;9.13;;
45944;SDS011;31655;48.972;10.686;2023-01-24T10:28:23;17.42;;;9.40;;
45944;SDS011;31655;48.972;10.686;2023-01-24T10:30:53;15.93;;;8.60;;
45944;SDS011;31655;48.972;10.686;2023-01-24T10:33:21;14.68;;;8.02;;
45944;SDS011;31655;48.972;10.686;2023-01-24T10:35:58;17.35;;;9.13;;
45944;SDS011;31655;48.972;10.686;2023-01-24T10:38:29;18.52;;;9.43;;
45944;SDS011;31655;48.972;10.686;2023-01-24T10:40:58;22.40;;;9.95;;
45944;SDS011;31655;48.972;10.686;2023-01-24T10:43:37;15.88;;;8.98;;
45944;SDS011;31655;48.972;10.686;2023-01-24T10:48:52;17.08;;;8.35;;
45944;SDS011;31655;48.972;10.686;2023-01-24T10:51:20;14.43;;;8.68;;
45944;SDS011;31655;48.972;10.686;2023-01-24T10:53:47;16.02;;;10.00;;
45944;SDS011;31655;48.972;10.686;2023-01-24T10:56:14;15.15;;;8.88;;
45944;SDS011;31655;48.972;10.686;2023-01-24T10:59:02;16.67;;;9.38;;
45944;SDS011;31655;48.972;10.686;2023-01-24T11:04:11;18.75;;;9.18;;
45944;SDS011;31655;48.972;10.686;2023-01-24T11:06:44;17.40;;;9.60;;
45944;SDS011;31655;48.972;10.686;2023-01-24T11:09:14;15.27;;;8.15;;
45944;SDS011;31655;48.972;10.686;2023-01-24T11:11:42;16.65;;;8.68;;
45944;SDS011;31655;48.972;10.686;2023-01-24T11:14:10;16.35;;;9.18;;
45944;SDS011;31655;48.972;10.686;2023-01-24T11:16:45;13.45;;;8.60;;
45944;SDS011;31655;48.972;10.686;2023-01-24T11:19:26;17.80;;;9.38;;
45944;SDS011;31655;48.972;10.686;2023-01-24T11:22:01;17.35;;;8.57;;
45944;SDS011;31655;48.972;10.686;2023-01-24T11:24:47;13.88;;;7.82;;
45944;SDS011;31655;48.972;10.686;2023-01-24T11:27:16;17.30;;;10.15;;
45944;SDS011;31655;48.972;10.686;2023-01-24T11:29:44;15.48;;;8.00;;
45944;SDS011;31655;48.972;10.686;2023-01-24T11:44:52;38.50;;;16.58;;
45944;SDS011;31655;48.972;10.686;2023-01-24T11:47:21;21.95;;;9.93;;
45944;SDS011;31655;48.972;10.686;2023-01-24T11:50:02;16.83;;;9.35;;
45944;SDS011;31655;48.972;10.686;2023-01-24T11:57:53;15.98;;;8.88;;
45944;SDS011;31655;48.972;10.686;2023-01-24T12:08:16;22.27;;;10.57;;
45944;SDS011;31655;48.972;10.686;2023-01-24T12:10:52;15.07;;;9.02;;
45944;SDS011;31655;48.972;10.686;2023-01-24T12:16:04;17.42;;;9.75;;
45944;SDS011;31655;48.972;10.686;2023-01-24T12:21:06;16.10;;;9.00;;
45944;SDS011;31655;48.972;10.686;2023-01-24T12:23:38;19.05;;;10.45;;
45944;SDS011;31655;48.972;10.686;2023-01-24T12:26:21;25.15;;;11.52;;
45944;SDS011;31655;48.972;10.686;2023-01-24T12:31:39;21.02;;;11.15;;
45944;SDS011;31655;48.972;10.686;2023-01-24T12:37:02;15.32;;;9.23;;
45944;SDS011;31655;48.972;10.686;2023-01-24T12:39:39;19.25;;;10.27;;
45944;SDS011;31655;48.972;10.686;2023-01-24T12:42:35;19.73;;;8.98;;
45944;SDS011;31655;48.972;10.686;2023-01-24T12:45:17;19.33;;;9.70;;
45944;SDS011;31655;48.972;10.686;2023-01-24T12:47:51;19.02;;;10.02;;
45944;SDS011;31655;48.972;10.686;2023-01-24T12:50:29;16.45;;;9.57;;
45944;SDS011;31655;48.972;10.686;2023-01-24T12:53:14;17.02;;;9.20;;
45944;SDS011;31655;48.972;10.686;2023-01-24T12:55:45;19.42;;;10.30;;
45944;SDS011;31655;48.972;10.686;2023-01-24T13:01:06;18.67;;;9.38;;
45944;SDS011;31655;48.972;10.686;2023-01-24T13:03:36;15.40;;;9.35;;
45944;SDS011;31655;48.972;10.686;2023-01-24T13:06:17;18.58;;;9.65;;
45944;SDS011;31655;48.972;10.686;2023-01-24T13:11:43;17.48;;;10.35;;
45944;SDS011;31655;48.972;10.686;2023-01-24T13:21:46;17.65;;;10.00;;
45944;SDS011;31655;48.972;10.686;2023-01-24T13:29:52;16.95;;;10.07;;
45944;SDS011;31655;48.972;10.686;2023-01-24T13:32:21;22.25;;;11.35;;
45944;SDS011;31655;48.972;10.686;2023-01-24T13:34:51;22.67;;;10.43;;
45944;SDS011;31655;48.972;10.686;2023-01-24T13:37:23;18.60;;;10.48;;
45944;SDS011;31655;48.972;10.686;2023-01-24T13:40:04;20.40;;;10.90;;
45944;SDS011;31655;48.972;10.686;2023-01-24T13:44:58;18.05;;;10.48;;
45944;SDS011;31655;48.972;10.686;2023-01-24T13:47:25;23.33;;;11.15;;
45944;SDS011;31655;48.972;10.686;2023-01-24T13:52:45;19.13;;;9.80;;
45944;SDS011;31655;48.972;10.686;2023-01-24T13:57:47;22.52;;;11.18;;
45944;SDS011;31655;48.972;10.686;2023-01-24T14:00:22;18.85;;;11.43;;
45944;SDS011;31655;48.972;10.686;2023-01-24T14:07:58;24.15;;;10.73;;
45944;SDS011;31655;48.972;10.686;2023-01-24T14:12:59;15.80;;;8.98;;
45944;SDS011;31655;48.972;10.686;2023-01-24T14:15:27;21.23;;;9.80;;
45944;SDS011;31655;48.972;10.686;2023-01-24T14:17:59;19.45;;;9.77;;
45944;SDS011;31655;48.972;10.686;2023-01-24T14:20:44;18.00;;;10.25;;
45944;SDS011;31655;48.972;10.686;2023-01-24T14:25:48;20.38;;;9.73;;
45944;SDS011;31655;48.972;10.686;2023-01-24T14:28:32;17.20;;;8.80;;
45944;SDS011;31655;48.972;10.686;2023-01-24T14:33:53;16.92;;;9.07;;
45944;SDS011;31655;48.972;10.686;2023-01-24T14:36:33;18.98;;;9.20;;
45944;SDS011;31655;48.972;10.686;2023-01-24T14:41:46;21.58;;;9.88;;
45944;SDS011;31655;48.972;10.686;2023-01-24T14:49:34;16.67;;;9.07;;
45944;SDS011;31655;48.972;10.686;2023-01-24T14:52:02;16.23;;;8.45;;
45944;SDS011;31655;48.972;10.686;2023-01-24T14:54:43;17.42;;;9.93;;
45944;SDS011;31655;48.972;10.686;2023-01-24T14:57:30;16.73;;;9.38;;
45944;SDS011;31655;48.972;10.686;2023-01-24T15:04:57;16.42;;;9.38;;
45944;SDS011;31655;48.972;10.686;2023-01-24T15:07:23;20.20;;;10.10;;
45944;SDS011;31655;48.972;10.686;2023-01-24T15:09:49;20.98;;;11.68;;
45944;SDS011;31655;48.972;10.686;2023-01-24T15:14:53;20.98;;;9.90;;
45944;SDS011;31655;48.972;10.686;2023-01-24T15:17:23;22.77;;;11.70;;
45944;SDS011;31655;48.972;10.686;2023-01-24T15:19:56;16.73;;;9.00;;
45944;SDS011;31655;48.972;10.686;2023-01-24T15:22:25;21.08;;;10.95;;
45944;SDS011;31655;48.972;10.686;2023-01-24T15:24:56;17.52;;;9.02;;
45944;SDS011;31655;48.972;10.686;2023-01-24T15:33:00;17.17;;;10.05;;
45944;SDS011;31655;48.972;10.686;2023-01-24T15:35:29;18.67;;;10.07;;
45944;SDS011;31655;48.972;10.686;2023-01-24T15:40:24;16.38;;;9.65;;
45944;SDS011;31655;48.972;10.686;2023-01-24T15:42:50;18.35;;;9.57;;
45944;SDS011;31655;48.972;10.686;2023-01-24T15:45:36;15.55;;;9.68;;
45944;SDS011;31655;48.972;10.686;2023-01-24T15:48:22;17.15;;;10.07;;
45944;SDS011;31655;48.972;10.686;2023-01-24T15:50:53;18.58;;;9.68;;
45944;SDS011;31655;48.972;10.686;2023-01-24T15:53:37;18.23;;;10.63;;
45944;SDS011;31655;48.972;10.686;2023-01-24T15:56:20;21.75;;;12.32;;
45944;SDS011;31655;48.972;10.686;2023-01-24T15:58:47;20.80;;;11.38;;
45944;SDS011;31655;48.972;10.686;2023-01-24T16:01:13;20.70;;;10.73;;
45944;SDS011;31655;48.972;10.686;2023-01-24T16:03:39;16.42;;;9.55;;
45944;SDS011;31655;48.972;10.686;2023-01-24T16:06:05;20.25;;;11.80;;
45944;SDS011;31655;48.972;10.686;2023-01-24T16:08:31;20.55;;;10.98;;
45944;SDS011;31655;48.972;10.686;2023-01-24T16:10:57;18.77;;;10.93;;
45944;SDS011;31655;48.972;10.686;2023-01-24T16:13:31;17.30;;;9.98;;
45944;SDS011;31655;48.972;10.686;2023-01-24T16:16:00;20.42;;;10.68;;
45944;SDS011;31655;48.972;10.686;2023-01-24T16:18:29;18.85;;;11.20;;
45944;SDS011;31655;48.972;10.686;2023-01-24T16:20:55;19.20;;;10.93;;
45944;SDS011;31655;48.972;10.686;2023-01-24T16:23:21;20.27;;;12.02;;
45944;SDS011;31655;48.972;10.686;2023-01-24T16:25:48;24.08;;;12.05;;
45944;SDS011;31655;48.972;10.686;2023-01-24T16:28:23;17.55;;;10.27;;
45944;SDS011;31655;48.972;10.686;2023-01-24T16:30:50;29.67;;;14.05;;
45944;SDS011;31655;48.972;10.686;2023-01-24T16:33:17;27.42;;;14.13;;
45944;SDS011;31655;48.972;10.686;2023-01-24T16:35:43;45.78;;;20.35;;
45944;SDS011;31655;48.972;10.686;2023-01-24T16:38:10;24.08;;;12.68;;
45944;SDS011;31655;48.972;10.686;2023-01-24T16:40:36;22.33;;;13.23;;
